createdAt,value
2023-02-02T02:17:39.362Z,0.25
2023-02-02T02:28:00.896Z,0.40
2023-02-02T02:38:28.028Z,0.60
2023-02-02T02:48:30.898Z,0.40
2023-02-02T02:58:46.184Z,1.38
2023-02-02T03:08:53.797Z,1.90
2023-02-02T03:18:56.961Z,0.77
2023-02-02T03:29:00.839Z,0.97
2023-02-02T03:39:09.511Z,0.98
2023-02-02T03:49:11.217Z,1.40
2023-02-02T03:59:15.175Z,1.17
2023-02-02T04:09:24.394Z,1.10
2023-02-02T04:19:26.101Z,0.98
2023-02-02T04:29:27.747Z,1.13
2023-02-02T04:39:31.249Z,1.30
2023-02-02T04:49:32.960Z,1.30
2023-02-02T04:59:34.726Z,1.00
2023-02-02T05:09:39.610Z,0.90
2023-02-02T05:19:43.275Z,1.10
2023-02-02T05:29:55.648Z,1.30
2023-02-02T05:39:57.485Z,1.23
2023-02-02T05:50:02.623Z,1.10
2023-02-02T06:00:05.644Z,1.55
2023-02-02T06:10:07.648Z,1.48
2023-02-02T06:20:10.117Z,1.45
2023-02-02T06:30:13.367Z,1.23
2023-02-02T06:40:17.795Z,1.03
2023-02-02T06:50:21.426Z,1.52
2023-02-02T07:00:23.435Z,1.47
2023-02-02T07:11:09.202Z,1.48
2023-02-02T07:20:49.126Z,1.15
2023-02-02T07:30:53.158Z,1.05
2023-02-02T07:51:06.138Z,1.02
2023-02-02T08:01:10.556Z,1.00
2023-02-02T08:11:16.389Z,1.58
2023-02-02T08:21:20.202Z,1.15
2023-02-02T08:31:42.144Z,0.90
2023-02-02T08:41:45.367Z,1.00
2023-02-02T08:51:47.164Z,1.23
2023-02-02T09:01:50.049Z,1.33
2023-02-02T09:11:51.890Z,0.90
2023-02-02T09:21:54.648Z,1.08
2023-02-02T09:31:57.863Z,0.70
2023-02-02T09:42:18.319Z,1.93
2023-02-02T09:52:43.700Z,1.13
2023-02-02T10:02:50.028Z,0.90
2023-02-02T10:13:18.183Z,1.10
2023-02-02T10:23:29.464Z,1.02
2023-02-02T10:33:41.972Z,0.77
2023-02-02T10:44:01.504Z,0.70
2023-02-02T10:54:19.552Z,0.95
2023-02-02T11:04:41.953Z,1.20
2023-02-02T11:15:00.009Z,0.85
2023-02-02T11:25:25.551Z,0.80
2023-02-02T11:35:31.746Z,0.90
2023-02-02T11:45:36.861Z,1.20
2023-02-02T11:55:38.622Z,0.80
2023-02-02T12:05:44.179Z,1.27
2023-02-02T12:16:00.000Z,0.80
2023-02-02T12:26:20.673Z,0.98
2023-02-02T12:36:43.900Z,1.00
2023-02-02T12:47:18.053Z,1.20
2023-02-02T12:57:46.142Z,1.10
2023-02-02T13:07:55.643Z,1.10
2023-02-02T13:18:07.560Z,1.25
2023-02-02T13:28:20.005Z,0.90
2023-02-02T13:38:24.752Z,1.73
2023-02-02T13:49:01.232Z,1.25
2023-02-02T13:59:37.224Z,0.95
2023-02-02T14:09:42.083Z,1.33
2023-02-02T14:19:49.535Z,1.42
2023-02-02T14:29:53.010Z,1.02
2023-02-02T14:40:04.451Z,1.37
2023-02-02T14:50:15.369Z,1.60
2023-02-02T15:00:28.386Z,1.40
2023-02-02T15:11:23.920Z,1.25
2023-02-02T15:21:27.908Z,1.00
2023-02-02T15:41:38.082Z,1.17
2023-02-02T15:51:43.558Z,1.50
2023-02-02T16:01:50.497Z,1.58
2023-02-02T16:11:53.261Z,1.25
2023-02-02T16:21:59.224Z,2.25
2023-02-02T16:32:04.879Z,1.33
2023-02-02T16:42:23.788Z,1.67
2023-02-02T16:52:29.605Z,2.30
2023-02-02T17:02:35.768Z,1.60
2023-02-02T17:12:37.825Z,1.90
2023-02-02T17:22:45.824Z,1.40
2023-02-02T17:32:49.002Z,1.73
2023-02-02T17:42:53.180Z,2.07
2023-02-02T17:52:55.504Z,1.63
2023-02-02T18:03:10.871Z,2.17
2023-02-02T18:13:21.360Z,2.10
2023-02-02T18:23:24.603Z,2.85
2023-02-02T18:33:27.684Z,2.77
2023-02-02T18:43:33.379Z,2.65
2023-02-02T18:53:43.417Z,2.30
2023-02-02T19:03:51.499Z,1.80
2023-02-02T19:13:53.891Z,2.05
2023-02-02T19:23:57.287Z,2.22
2023-02-02T19:33:59.824Z,2.13
2023-02-02T19:44:10.733Z,2.60
2023-02-02T19:54:47.778Z,3.33
2023-02-02T20:04:59.720Z,3.28
2023-02-02T20:15:19.610Z,4.07
2023-02-02T20:25:22.328Z,2.97
2023-02-02T20:35:36.417Z,3.70
2023-02-02T20:45:40.231Z,4.13
2023-02-02T20:55:44.784Z,3.08
2023-02-02T21:05:49.861Z,3.33
2023-02-02T21:15:52.756Z,3.20
2023-02-02T21:26:01.958Z,3.40
2023-02-02T21:36:27.291Z,3.65
2023-02-02T21:46:37.193Z,3.70
2023-02-02T21:56:40.356Z,3.45
2023-02-02T22:06:46.576Z,3.80
2023-02-02T22:16:55.108Z,3.58
2023-02-02T22:26:58.993Z,3.70
2023-02-02T22:37:01.596Z,3.70
2023-02-02T22:47:03.477Z,5.05
2023-02-02T22:57:06.356Z,3.70
2023-02-02T23:07:08.265Z,3.25
2023-02-02T23:17:11.989Z,3.03
2023-02-02T23:27:14.640Z,3.13
2023-02-02T23:37:16.411Z,3.17
2023-02-02T23:47:18.988Z,3.10
2023-02-02T23:57:21.029Z,2.90
